Madison, South Dakota
Current Conditions -  °F | °C
As of 10:35 AM on Tuesday 21 Oct 2014 (Local Time) from KMDS Reporting Station
Clear Clear  
Wind Chill: 57°   Ceiling: Unl
Heat Index: 57°   Visibility: 10mi
Dew Point: 39°   Wind: 13mph
Humidity: 51%   Direction: 170°S
Pressure: 30.04"   Gusts: 21mph
Location:  44.01°N, 97.11°W
Report Text: KMDS 211535Z AUTO 17011G18KT 10SM CLR 14/04 A3004 RMK AO2
Loading
Personal Weather Stations






























Interactive Weather Map
Tropical Storm Tracking
New forecast layout! Learn more

10-Day Weather Forecast

Advertisements
Track Severe Weather on mobile